Time;durP1;ratioP1;P1;durP2;ratioP2;P2;SDS_P1;SDS_P2;PMS_P1;PMS_P2;Temp;Humidity;BMP_temperature;BMP_pressure;BME280_temperature;BME280_humidity;BME280_pressure;Samples;Min_cycle;Max_cycle;Signal;HPM_P1;HPM_P2
2022/12/14 00:03:53;;;;;;;31.20;17.70;;;22.50;51.10;;;;;;215673;1281;25446;-57
2022/12/14 00:09:03;;;;;;;30.80;17.70;;;22.30;51.30;;;;;;215377;1288;22634;-54
2022/12/14 00:14:25;;;;;;;26.90;16.50;;;22.20;51.20;;;;;;210876;1283;6561758;-55
2022/12/14 00:19:34;;;;;;;26.80;16.60;;;22.00;50.70;;;;;;215418;1294;22471;-55
2022/12/14 00:24:39;;;;;;;25.80;15.70;;;22.00;51.20;;;;;;215452;1271;24299;-56
2022/12/14 00:29:45;;;;;;;28.20;16.90;;;21.90;50.80;;;;;;215224;1283;22462;-54
2022/12/14 00:34:49;;;;;;;28.50;16.50;;;21.70;51.50;;;;;;215202;1281;24406;-55
2022/12/14 00:39:55;;;;;;;29.10;17.70;;;21.70;50.80;;;;;;215330;1282;24253;-56
2022/12/14 00:45:01;;;;;;;27.80;16.80;;;21.60;50.80;;;;;;215524;1279;23640;-56
2022/12/14 00:50:05;;;;;;;27.40;17.00;;;21.50;50.80;;;;;;215482;1297;22468;-56
2022/12/14 00:55:09;;;;;;;25.40;16.60;;;21.40;51.00;;;;;;215473;1283;23863;-56
2022/12/14 01:00:13;;;;;;;24.60;16.00;;;21.30;50.80;;;;;;215116;1276;23898;-56
2022/12/14 01:05:18;;;;;;;24.70;16.20;;;21.30;51.00;;;;;;215303;1276;23849;-54
2022/12/14 01:10:22;;;;;;;26.90;16.80;;;21.20;51.00;;;;;;215562;1276;23196;-54
2022/12/14 01:15:26;;;;;;;27.20;16.40;;;21.20;50.90;;;;;;215590;1282;22448;-59
2022/12/14 01:20:30;;;;;;;22.70;15.00;;;21.40;51.10;;;;;;215350;1276;22605;-55
2022/12/14 01:25:34;;;;;;;27.20;15.20;;;21.90;49.80;;;;;;215203;1276;22463;-54
2022/12/14 01:30:38;;;;;;;23.10;15.70;;;22.20;49.20;;;;;;215425;1281;22855;-55
2022/12/14 01:35:42;;;;;;;24.20;15.00;;;22.30;49.10;;;;;;215195;1269;22475;-55
2022/12/14 01:40:46;;;;;;;26.30;16.20;;;22.50;48.90;;;;;;215003;1286;22463;-55
2022/12/14 01:45:54;;;;;;;25.40;15.60;;;22.60;47.90;;;;;;215270;1294;22513;-55
2022/12/14 01:50:58;;;;;;;23.30;14.80;;;22.60;47.50;;;;;;215355;1276;27823;-55
2022/12/14 01:56:03;;;;;;;27.30;16.30;;;22.70;47.60;;;;;;215405;1282;22564;-53
2022/12/14 02:01:10;;;;;;;22.70;15.50;;;22.70;47.30;;;;;;215356;1293;25272;-55
2022/12/14 02:06:21;;;;;;;23.60;15.60;;;22.70;47.40;;;;;;215063;1277;22499;-55
2022/12/14 02:11:58;;;;;;;22.60;15.10;;;22.70;47.70;;;;;;215408;1275;23050;-55
2022/12/14 02:17:03;;;;;;;22.00;15.30;;;22.70;47.00;;;;;;215279;1285;22461;-55
2022/12/14 02:22:28;;;;;;;23.20;15.40;;;22.70;47.00;;;;;;215467;1279;22700;-55
2022/12/14 02:27:57;;;;;;;24.60;16.10;;;22.70;46.80;;;;;;215245;1274;24299;-53
2022/12/14 02:33:24;;;;;;;25.60;15.90;;;22.80;46.70;;;;;;215425;1276;25303;-55
2022/12/14 02:38:48;;;;;;;22.70;15.10;;;22.80;46.70;;;;;;215335;1283;22566;-55
2022/12/14 02:44:26;;;;;;;20.50;13.50;;;22.80;47.10;;;;;;214935;1294;23831;-55
2022/12/14 02:49:48;;;;;;;22.40;15.10;;;22.90;46.60;;;;;;215147;1276;23657;-55
2022/12/14 02:54:59;;;;;;;20.30;14.20;;;22.90;46.50;;;;;;215419;1269;22460;-55
2022/12/14 03:00:04;;;;;;;19.80;13.50;;;22.90;46.50;;;;;;215393;1281;22451;-56
2022/12/14 03:05:09;;;;;;;23.20;15.40;;;22.90;46.70;;;;;;215400;1276;22462;-54
2022/12/14 03:10:37;;;;;;;23.30;14.30;;;22.90;46.70;;;;;;215216;1269;23893;-55
2022/12/14 03:15:46;;;;;;;21.10;14.90;;;22.90;46.40;;;;;;215297;1275;22488;-55
2022/12/14 03:20:54;;;;;;;22.80;14.70;;;22.90;46.20;;;;;;215225;1274;24278;-56
2022/12/14 03:26:01;;;;;;;22.00;14.70;;;22.90;46.20;;;;;;215143;1275;22503;-54
2022/12/14 03:31:11;;;;;;;22.30;14.40;;;23.00;46.50;;;;;;215411;1276;22504;-56
2022/12/14 03:36:29;;;;;;;21.30;14.40;;;23.00;46.00;;;;;;215195;1278;22468;-56
2022/12/14 03:41:54;;;;;;;17.90;13.10;;;23.00;46.50;;;;;;215044;1269;24198;-54
2022/12/14 03:47:05;;;;;;;21.60;14.00;;;23.00;45.90;;;;;;215227;1276;25432;-55
2022/12/14 03:52:48;;;;;;;24.20;14.40;;;23.00;45.80;;;;;;215000;1276;22441;-55
2022/12/14 03:58:30;;;;;;;20.60;12.90;;;23.10;45.90;;;;;;215274;1281;22692;-55
2022/12/14 04:04:00;;;;;;;19.30;13.60;;;23.10;46.00;;;;;;215325;1277;25486;-55
2022/12/14 04:09:09;;;;;;;19.70;13.00;;;23.10;45.80;;;;;;215283;1283;24217;-55
2022/12/14 04:19:55;;;;;;;20.80;13.50;;;23.00;45.70;;;;;;215542;1276;26482;-56
2022/12/14 04:30:31;;;;;;;20.40;13.90;;;23.00;46.30;;;;;;215582;1297;23880;-55
2022/12/14 04:35:39;;;;;;;21.40;14.40;;;23.00;45.60;;;;;;215542;1275;22483;-56
2022/12/14 04:40:50;;;;;;;19.90;14.20;;;23.10;46.20;;;;;;215568;1273;22671;-55
2022/12/14 04:45:58;;;;;;;22.00;14.20;;;23.00;45.60;;;;;;215504;1278;22468;-54
2022/12/14 04:51:27;;;;;;;20.30;13.60;;;23.10;45.60;;;;;;215453;1275;24216;-55
2022/12/14 04:56:51;;;;;;;19.70;14.00;;;23.10;45.70;;;;;;215132;1282;24045;-54
2022/12/14 05:02:30;;;;;;;18.60;12.90;;;23.10;45.70;;;;;;215550;1290;22465;-55
2022/12/14 05:07:53;;;;;;;19.40;13.50;;;23.10;45.50;;;;;;215506;1279;24247;-54
2022/12/14 05:13:09;;;;;;;20.00;14.20;;;23.20;45.30;;;;;;215579;1278;24306;-54
2022/12/14 05:18:13;;;;;;;19.70;13.80;;;23.20;45.40;;;;;;215518;1271;25251;-54
2022/12/14 05:23:16;;;;;;;18.20;13.40;;;23.20;45.30;;;;;;215681;1276;24401;-56
2022/12/14 05:28:20;;;;;;;21.90;14.50;;;23.20;45.30;;;;;;215558;1280;24018;-53
2022/12/14 05:33:25;;;;;;;19.80;13.10;;;23.20;45.20;;;;;;215542;1283;24184;-55
2022/12/14 05:38:30;;;;;;;20.10;14.20;;;23.10;45.20;;;;;;215626;1280;22510;-54
2022/12/14 05:43:34;;;;;;;20.90;14.10;;;23.20;45.50;;;;;;215554;1283;25294;-54
2022/12/14 05:48:38;;;;;;;22.00;15.10;;;23.20;45.30;;;;;;215271;1293;24369;-55
2022/12/14 05:53:42;;;;;;;21.10;13.80;;;23.20;45.20;;;;;;215527;1275;22545;-55
2022/12/14 05:58:49;;;;;;;22.20;14.20;;;23.20;45.60;;;;;;215699;1283;22668;-55
2022/12/14 06:03:53;;;;;;;20.00;13.70;;;23.20;45.20;;;;;;215543;1269;22566;-55
2022/12/14 06:08:57;;;;;;;20.70;14.40;;;23.20;45.50;;;;;;215518;1285;24312;-55
2022/12/14 06:14:01;;;;;;;22.60;15.30;;;23.30;45.20;;;;;;215510;1276;24011;-55
2022/12/14 06:19:05;;;;;;;21.70;13.60;;;23.20;45.10;;;;;;215507;1277;22708;-55
2022/12/14 06:24:10;;;;;;;21.90;14.10;;;23.20;45.20;;;;;;215430;1296;24327;-55
2022/12/14 06:29:17;;;;;;;20.00;14.00;;;23.30;45.30;;;;;;215542;1297;24017;-56
2022/12/14 06:34:21;;;;;;;23.30;14.80;;;23.30;45.10;;;;;;215313;1277;22455;-55
2022/12/14 06:39:31;;;;;;;22.10;15.30;;;23.30;45.40;;;;;;215579;1276;25450;-54
2022/12/14 06:44:35;;;;;;;20.40;15.00;;;23.20;45.10;;;;;;215643;1279;22497;-56
2022/12/14 06:49:39;;;;;;;22.30;14.60;;;23.30;45.00;;;;;;215606;1275;22567;-55
2022/12/14 06:54:43;;;;;;;20.80;15.10;;;23.30;45.40;;;;;;215546;1272;26634;-54
2022/12/14 06:59:46;;;;;;;23.90;15.40;;;23.20;45.10;;;;;;215667;1275;22491;-55
2022/12/14 07:04:50;;;;;;;20.20;14.20;;;23.20;45.40;;;;;;215505;1276;24518;-55
2022/12/14 07:09:54;;;;;;;24.00;14.40;;;23.10;45.70;;;;;;215542;1272;24253;-55
2022/12/14 07:15:03;;;;;;;21.40;14.70;;;23.00;46.70;;;;;;215567;1291;25220;-55
2022/12/14 07:20:09;;;;;;;24.90;15.40;;;22.80;46.70;;;;;;215482;1277;25678;-56
2022/12/14 07:25:16;;;;;;;30.80;15.10;;;22.70;47.40;;;;;;215528;1280;22537;-55
2022/12/14 07:30:21;;;;;;;26.70;15.00;;;22.60;47.80;;;;;;215532;1291;26689;-56
2022/12/14 07:35:25;;;;;;;28.60;15.50;;;22.60;47.60;;;;;;215567;1269;23856;-55
2022/12/14 07:40:34;;;;;;;33.50;15.90;;;22.50;47.90;;;;;;215525;1276;24237;-55
2022/12/14 07:45:40;;;;;;;27.30;15.80;;;22.30;48.10;;;;;;215773;1277;22712;-52
2022/12/14 07:50:45;;;;;;;27.60;14.90;;;22.20;48.80;;;;;;215691;1271;22588;-54
2022/12/14 07:55:49;;;;;;;27.70;14.70;;;22.10;48.90;;;;;;215450;1272;24275;-55
2022/12/14 08:01:06;;;;;;;29.80;15.30;;;22.10;49.20;;;;;;215488;1269;22549;-56
2022/12/14 08:06:16;;;;;;;26.40;15.60;;;21.90;49.60;;;;;;215500;1282;24319;-53
2022/12/14 08:11:28;;;;;;;24.60;16.00;;;21.80;49.40;;;;;;218427;1272;24011;-53
2022/12/14 08:16:35;;;;;;;27.30;15.50;;;21.70;49.40;;;;;;215619;1291;23911;-52
2022/12/14 08:21:40;;;;;;;24.70;16.90;;;21.60;49.40;;;;;;215547;1273;23675;-52
2022/12/14 08:26:44;;;;;;;26.20;17.30;;;21.50;48.60;;;;;;215571;1290;22585;-56
2022/12/14 08:31:55;;;;;;;29.70;16.90;;;21.40;48.30;;;;;;215446;1280;25290;-54
2022/12/14 08:36:59;;;;;;;26.20;17.60;;;21.40;48.60;;;;;;215524;1276;23875;-55
2022/12/14 08:42:04;;;;;;;25.30;15.90;;;21.40;48.30;;;;;;215444;1269;22479;-55
2022/12/14 08:47:09;;;;;;;25.50;16.80;;;21.40;48.20;;;;;;215486;1277;22472;-55
2022/12/14 08:52:22;;;;;;;25.30;15.30;;;21.40;48.40;;;;;;215534;1286;24368;-54
2022/12/14 08:57:28;;;;;;;25.20;16.40;;;21.40;48.50;;;;;;215445;1293;22571;-54
2022/12/14 09:02:42;;;;;;;23.40;15.50;;;21.50;48.30;;;;;;215484;1272;24308;-55
2022/12/14 09:07:54;;;;;;;24.10;15.00;;;21.90;47.80;;;;;;215484;1269;22467;-54
2022/12/14 09:13:09;;;;;;;27.30;15.20;;;22.20;47.10;;;;;;215570;1272;22510;-56
2022/12/14 09:18:45;;;;;;;26.10;15.80;;;22.30;47.20;;;;;;215197;1277;23303;-55
2022/12/14 09:23:54;;;;;;;24.70;16.80;;;22.50;46.40;;;;;;214948;1277;22701;-55
2022/12/14 09:29:29;;;;;;;24.70;15.80;;;22.70;46.10;;;;;;215131;1283;23927;-55
2022/12/14 09:34:51;;;;;;;25.00;17.00;;;22.80;46.20;;;;;;215098;1281;25503;-53
2022/12/14 09:40:06;;;;;;;24.50;16.50;;;22.80;45.90;;;;;;215044;1286;24259;-53
2022/12/14 09:45:28;;;;;;;23.40;15.90;;;22.80;46.10;;;;;;215452;1282;25415;-53
2022/12/14 09:50:37;;;;;;;24.10;16.40;;;22.80;46.20;;;;;;215420;1283;24188;-52
2022/12/14 09:55:49;;;;;;;26.10;15.80;;;22.90;45.90;;;;;;215329;1282;22482;-52
2022/12/14 10:01:21;;;;;;;24.40;16.10;;;23.00;45.70;;;;;;215389;1280;25081;-53
2022/12/14 10:06:55;;;;;;;22.70;16.50;;;23.00;45.60;;;;;;215468;1280;22469;-52
2022/12/14 10:12:34;;;;;;;23.40;16.10;;;23.10;45.80;;;;;;215189;1282;23293;-55
2022/12/14 10:18:18;;;;;;;22.40;15.70;;;23.20;45.30;;;;;;215430;1280;25536;-53
2022/12/14 10:24:04;;;;;;;26.20;17.00;;;23.10;45.30;;;;;;215492;1283;25549;-55
2022/12/14 10:29:24;;;;;;;23.00;15.20;;;23.20;45.50;;;;;;215541;1282;22482;-54
2022/12/14 10:34:30;;;;;;;23.20;15.90;;;23.20;45.70;;;;;;215465;1277;25500;-53
2022/12/14 10:39:57;;;;;;;24.10;15.80;;;23.30;45.20;;;;;;215693;1282;25377;-52
2022/12/14 10:45:30;;;;;;;25.50;16.20;;;23.30;44.70;;;;;;215731;1277;25376;-54
2022/12/14 10:51:16;;;;;;;24.60;18.60;;;23.30;44.20;;;;;;215625;1276;22613;-54
2022/12/14 10:56:24;;;;;;;;;;;23.40;44.70;;;;;;215059;1282;22473;-53
2022/12/14 11:01:31;;;;;;;24.30;16.00;;;23.40;44.40;;;;;;215549;1279;22659;-54
2022/12/14 11:06:37;;;;;;;27.00;16.80;;;23.40;44.50;;;;;;215531;1279;23858;-53
2022/12/14 11:11:44;;;;;;;24.40;16.80;;;23.50;44.40;;;;;;215479;1277;22703;-55
2022/12/14 11:16:53;;;;;;;25.30;17.00;;;23.40;45.10;;;;;;215574;1281;24314;-55
2022/12/14 11:22:12;;;;;;;20.90;15.40;;;23.30;44.70;;;;;;215274;1288;23991;-56
2022/12/14 11:27:28;;;;;;;24.70;16.50;;;23.30;44.90;;;;;;215344;1282;24244;-56
2022/12/14 11:32:37;;;;;;;23.50;14.90;;;23.10;45.20;;;;;;215600;1279;22543;-54
2022/12/14 11:37:57;;;;;;;21.40;15.80;;;23.00;45.30;;;;;;215548;1272;24142;-55
2022/12/14 11:43:37;;;;;;;25.80;16.70;;;22.80;45.70;;;;;;214407;1285;22580;-55
2022/12/14 11:48:51;;;;;;;24.90;16.00;;;22.70;46.40;;;;;;214529;1279;25320;-55
2022/12/14 11:54:02;;;;;;;24.10;16.10;;;22.60;46.10;;;;;;214437;1278;24013;-55
2022/12/14 11:59:17;;;;;;;21.80;15.40;;;22.60;46.30;;;;;;214578;1278;22531;-55
2022/12/14 12:04:37;;;;;;;25.00;16.80;;;22.60;46.80;;;;;;214624;1278;22746;-54
2022/12/14 12:09:42;;;;;;;21.60;13.80;;;22.50;46.60;;;;;;214460;1272;22709;-53
2022/12/14 12:14:51;;;;;;;24.50;14.60;;;22.40;46.60;;;;;;214313;1280;168861;-54
2022/12/14 12:19:54;;;;;;;21.70;14.90;;;22.30;46.90;;;;;;214532;1280;26611;-54
2022/12/14 12:25:04;;;;;;;21.30;13.30;;;22.30;46.90;;;;;;214408;1272;25151;-53
2022/12/14 12:30:33;;;;;;;23.10;14.90;;;22.20;47.30;;;;;;214418;1278;24043;-53
2022/12/14 12:35:51;;;;;;;26.90;15.00;;;22.10;47.00;;;;;;214497;1279;24870;-55
2022/12/14 12:41:20;;;;;;;22.70;14.00;;;22.00;47.10;;;;;;214838;1274;22576;-54
2022/12/14 12:46:44;;;;;;;21.90;14.50;;;21.90;47.40;;;;;;214935;1276;23054;-51
2022/12/14 12:52:34;;;;;;;21.10;14.00;;;21.80;47.20;;;;;;215128;1276;22591;-54
2022/12/14 12:57:48;;;;;;;22.00;14.30;;;21.70;47.30;;;;;;215134;1289;24320;-53
2022/12/14 13:03:04;;;;;;;19.60;13.50;;;21.70;47.30;;;;;;215252;1276;22479;-53
2022/12/14 13:08:27;;;;;;;22.30;15.70;;;21.60;47.40;;;;;;215374;1287;22598;-53
2022/12/14 13:13:37;;;;;;;21.30;14.70;;;21.40;47.20;;;;;;215354;1281;25323;-53
2022/12/14 13:18:49;;;;;;;21.40;14.50;;;21.30;47.30;;;;;;215357;1275;26488;-53
2022/12/14 13:24:19;;;;;;;21.70;13.90;;;21.20;47.50;;;;;;215254;1276;25343;-53
2022/12/14 13:29:41;;;;;;;21.40;14.70;;;21.20;47.70;;;;;;215525;1292;24194;-54
2022/12/14 13:34:55;;;;;;;20.20;13.80;;;21.60;47.00;;;;;;215578;1281;25549;-54
2022/12/14 13:40:43;;;;;;;21.90;14.90;;;22.00;46.30;;;;;;215386;1275;24426;-55
2022/12/14 13:45:48;;;;;;;20.60;13.00;;;22.30;45.80;;;;;;215755;1297;25336;-53
2022/12/14 13:51:05;;;;;;;21.00;13.30;;;22.40;45.40;;;;;;215347;1280;24310;-53
2022/12/14 13:56:21;;;;;;;20.10;13.60;;;22.50;45.30;;;;;;215500;1285;22469;-53
2022/12/14 14:01:47;;;;;;;18.90;12.30;;;22.60;45.80;;;;;;215756;1292;22472;-52
2022/12/14 14:07:22;;;;;;;18.70;12.50;;;22.70;44.80;;;;;;215468;1280;23067;-52
2022/12/14 14:12:55;;;;;;;18.20;13.10;;;22.80;44.60;;;;;;215038;1286;24311;-53
2022/12/14 14:18:19;;;;;;;17.20;11.40;;;22.80;44.60;;;;;;215460;1266;24250;-52
2022/12/14 14:23:29;;;;;;;18.80;12.80;;;22.80;44.50;;;;;;215548;1283;27925;-54
2022/12/14 14:28:42;;;;;;;18.20;12.20;;;22.80;44.60;;;;;;215542;1276;26487;-51
2022/12/14 14:33:59;;;;;;;17.90;12.40;;;22.80;44.70;;;;;;215217;1286;25241;-52
2022/12/14 14:39:38;;;;;;;17.20;12.20;;;22.80;44.80;;;;;;215366;1278;22472;-51
2022/12/14 14:45:05;;;;;;;19.10;12.50;;;22.80;45.10;;;;;;215510;1297;25428;-52
2022/12/14 14:50:24;;;;;;;18.30;12.00;;;22.70;44.60;;;;;;215545;1282;22489;-54
2022/12/14 14:55:46;;;;;;;19.20;12.80;;;22.70;44.60;;;;;;215426;1269;23637;-53
2022/12/14 15:01:29;;;;;;;17.20;11.80;;;22.80;44.20;;;;;;215496;1276;22517;-53
2022/12/14 15:06:39;;;;;;;17.10;11.60;;;22.80;44.20;;;;;;216089;1277;25371;-53
2022/12/14 15:11:51;;;;;;;19.50;12.30;;;22.90;44.20;;;;;;215533;1279;24245;-53
2022/12/14 15:17:24;;;;;;;17.90;12.60;;;22.90;44.20;;;;;;215499;1277;26484;-52
2022/12/14 15:22:44;;;;;;;19.50;12.80;;;22.90;44.30;;;;;;215463;1291;25615;-51
2022/12/14 15:27:54;;;;;;;16.60;11.60;;;22.80;44.50;;;;;;215619;1291;25852;-53
2022/12/14 15:33:21;;;;;;;15.30;11.20;;;22.80;44.30;;;;;;215573;1281;23839;-53
2022/12/14 15:38:51;;;;;;;18.50;11.70;;;22.80;44.40;;;;;;215268;1279;22591;-54
2022/12/14 15:43:57;;;;;;;18.50;12.40;;;22.90;44.40;;;;;;215525;1283;24394;-54
2022/12/14 15:49:21;;;;;;;16.70;11.10;;;22.90;44.30;;;;;;215552;1277;22487;-53
2022/12/14 15:54:41;;;;;;;18.40;11.10;;;22.90;44.30;;;;;;215613;1276;22532;-53
2022/12/14 16:00:02;;;;;;;19.70;11.70;;;22.90;44.10;;;;;;215440;1283;24325;-60
2022/12/14 16:05:22;;;;;;;21.30;11.70;;;23.00;44.00;;;;;;215536;1283;23042;-53
2022/12/14 16:10:33;;;;;;;18.50;11.90;;;23.00;44.10;;;;;;215472;1275;25452;-53
2022/12/14 16:15:40;;;;;;;19.60;12.30;;;23.00;44.10;;;;;;215526;1277;22449;-53
2022/12/14 16:21:05;;;;;;;18.80;11.70;;;23.00;44.10;;;;;;215515;1274;23723;-53
2022/12/14 16:26:36;;;;;;;22.60;12.50;;;23.00;44.10;;;;;;215657;1285;22798;-54
2022/12/14 16:31:47;;;;;;;17.30;11.30;;;22.90;44.10;;;;;;215464;1277;24499;-56
2022/12/14 16:37:16;;;;;;;19.30;12.70;;;22.90;44.10;;;;;;215528;1279;22510;-53
2022/12/14 16:42:41;;;;;;;17.30;11.50;;;23.00;44.60;;;;;;215542;1269;22813;-53
2022/12/14 16:48:14;;;;;;;18.50;11.70;;;23.00;44.20;;;;;;215444;1281;24298;-53
2022/12/14 16:53:34;;;;;;;18.20;11.90;;;23.00;44.70;;;;;;215637;1281;24535;-54
2022/12/14 16:58:51;;;;;;;17.10;11.10;;;23.00;44.10;;;;;;215622;1283;22497;-52
2022/12/14 17:04:02;;;;;;;21.00;12.40;;;23.00;44.40;;;;;;215393;1275;26483;-53
2022/12/14 17:09:35;;;;;;;18.90;11.70;;;23.00;44.10;;;;;;215552;1282;23191;-53
2022/12/14 17:14:47;;;;;;;21.10;13.20;;;23.00;44.10;;;;;;215341;1277;22469;-53
2022/12/14 17:20:03;;;;;;;25.30;12.90;;;23.00;44.50;;;;;;215273;1274;22459;-53
2022/12/14 17:25:18;;;;;;;20.50;12.20;;;23.00;44.40;;;;;;215351;1294;25349;-52
2022/12/14 17:30:27;;;;;;;22.20;12.70;;;23.00;44.10;;;;;;215499;1283;22468;-52
2022/12/14 17:35:42;;;;;;;23.90;15.20;;;23.00;44.70;;;;;;215515;1272;23676;-51
2022/12/14 17:41:00;;;;;;;24.20;13.50;;;23.10;46.70;;;;;;214830;1275;23845;-54
2022/12/14 17:46:22;;;;;;;22.70;14.00;;;23.20;47.10;;;;;;214328;1279;24837;-54
2022/12/14 17:51:28;;;;;;;22.40;13.20;;;23.10;47.30;;;;;;214671;1279;22522;-54
2022/12/14 17:56:43;;;;;;;24.20;13.40;;;23.10;47.80;;;;;;214630;1270;24386;-54
2022/12/14 18:01:53;;;;;;;24.10;14.10;;;23.10;49.70;;;;;;214693;1279;25340;-54
2022/12/14 18:07:09;;;;;;;27.20;14.30;;;23.00;50.50;;;;;;214558;1278;22484;-54
2022/12/14 18:12:24;;;;;;;;;;;22.90;50.40;;;;;;214368;1280;22454;-55
2022/12/14 18:17:28;;;;;;;23.70;12.90;;;22.90;50.30;;;;;;216597;1277;22498;-56
2022/12/14 18:22:32;;;;;;;26.80;13.90;;;22.70;49.80;;;;;;215174;1285;25456;-57
2022/12/14 18:27:36;;;;;;;26.90;14.30;;;22.60;49.40;;;;;;214875;1279;22852;-55
2022/12/14 18:32:40;;;;;;;27.10;14.50;;;22.50;49.00;;;;;;215051;1273;24333;-53
2022/12/14 18:37:48;;;;;;;23.20;13.90;;;22.40;48.80;;;;;;215020;1284;23924;-55
2022/12/14 18:42:53;;;;;;;26.50;14.20;;;22.40;48.60;;;;;;214864;1285;22469;-54
2022/12/14 18:48:01;;;;;;;24.30;13.70;;;22.20;48.50;;;;;;214854;1271;22541;-52
2022/12/14 18:53:05;;;;;;;23.30;15.00;;;22.20;49.10;;;;;;215098;1271;23478;-52
2022/12/14 18:58:21;;;;;;;34.80;15.00;;;22.10;48.00;;;;;;215437;1276;22704;-55
2022/12/14 19:03:30;;;;;;;24.10;14.00;;;22.10;48.50;;;;;;215687;1276;23831;-54
2022/12/14 19:08:35;;;;;;;22.70;14.50;;;22.00;47.10;;;;;;215547;1283;22562;-52
2022/12/14 19:13:52;;;;;;;26.50;15.40;;;21.90;47.10;;;;;;215098;1283;26337;-53
2022/12/14 19:18:58;;;;;;;25.80;15.40;;;21.80;47.30;;;;;;215091;1275;24048;-57
2022/12/14 19:24:15;;;;;;;27.10;15.80;;;21.70;47.30;;;;;;215112;1289;23843;-50
2022/12/14 19:29:19;;;;;;;23.20;14.40;;;21.70;47.20;;;;;;215585;1283;22475;-54
2022/12/14 19:34:23;;;;;;;26.20;14.80;;;21.60;47.10;;;;;;215632;1269;25305;-54
2022/12/14 19:39:28;;;;;;;25.80;14.60;;;21.50;48.60;;;;;;215518;1283;22758;-54
2022/12/14 19:44:33;;;;;;;25.20;13.60;;;21.40;48.60;;;;;;215457;1269;25312;-54
2022/12/14 19:49:37;;;;;;;27.80;15.60;;;21.40;48.40;;;;;;215291;1281;24231;-54
2022/12/14 19:54:44;;;;;;;23.40;14.60;;;21.30;48.30;;;;;;215351;1277;22588;-54
2022/12/14 19:59:49;;;;;;;27.90;15.70;;;21.30;48.20;;;;;;215476;1289;25382;-54
2022/12/14 20:04:53;;;;;;;32.10;17.70;;;21.30;48.70;;;;;;215645;1276;23849;-55
2022/12/14 20:09:57;;;;;;;32.40;19.10;;;21.20;49.50;;;;;;215591;1289;26486;-53
2022/12/14 20:15:04;;;;;;;35.30;18.60;;;21.10;49.60;;;;;;215628;1281;24297;-54
2022/12/14 20:20:08;;;;;;;29.10;17.50;;;21.30;48.70;;;;;;215656;1276;24275;-55
2022/12/14 20:25:15;;;;;;;30.30;17.70;;;21.50;48.80;;;;;;215436;1283;22473;-53
2022/12/14 20:30:19;;;;;;;26.90;17.70;;;21.80;48.60;;;;;;215668;1276;24298;-54
2022/12/14 20:35:23;;;;;;;27.80;17.10;;;22.00;48.00;;;;;;215597;1276;22476;-54
2022/12/14 20:40:33;;;;;;;30.00;17.40;;;22.20;48.40;;;;;;215548;1269;24349;-52
2022/12/14 20:45:42;;;;;;;28.70;17.80;;;22.40;47.40;;;;;;215516;1283;22588;-56
2022/12/14 20:51:06;;;;;;;28.20;18.20;;;22.50;47.60;;;;;;215521;1279;24172;-54
2022/12/14 20:56:18;;;;;;;34.60;19.30;;;22.50;46.70;;;;;;215383;1273;24228;-53
2022/12/14 21:01:26;;;;;;;29.80;18.30;;;22.60;45.90;;;;;;215421;1279;24248;-54
2022/12/14 21:06:38;;;;;;;29.80;18.80;;;22.70;45.80;;;;;;215335;1269;25440;-59
2022/12/14 21:17:09;;;;;;;28.60;18.00;;;22.80;45.60;;;;;;215460;1282;24256;-55
2022/12/14 21:22:25;;;;;;;28.80;17.60;;;22.90;45.10;;;;;;215526;1282;22476;-56
2022/12/14 21:27:34;;;;;;;24.30;16.60;;;23.00;44.30;;;;;;215627;1282;22506;-56
2022/12/14 21:32:54;;;;;;;26.10;17.80;;;23.00;44.20;;;;;;215629;1279;24207;-56
2022/12/14 21:38:26;;;;;;;26.70;17.60;;;23.00;44.10;;;;;;215392;1277;22468;-56
2022/12/14 21:43:44;;;;;;;27.30;18.80;;;22.90;43.80;;;;;;215590;1283;22524;-56
2022/12/14 21:48:55;;;;;;;27.20;18.20;;;23.00;43.80;;;;;;215543;1275;22513;-54
2022/12/14 21:54:16;;;;;;;28.70;18.10;;;23.10;43.60;;;;;;215477;1269;25531;-60
2022/12/14 21:59:43;;;;;;;27.40;19.40;;;23.10;43.30;;;;;;215672;1276;22856;-58
2022/12/14 22:04:48;;;;;;;30.50;19.40;;;23.10;43.20;;;;;;215619;1276;22500;-58
2022/12/14 22:09:52;;;;;;;30.10;20.80;;;23.20;43.50;;;;;;215535;1271;24317;-59
2022/12/14 22:14:55;;;;;;;28.70;20.20;;;23.20;42.90;;;;;;215562;1269;24224;-58
2022/12/14 22:20:06;;;;;;;31.40;21.30;;;23.20;42.80;;;;;;215478;1276;22612;-59
2022/12/14 22:25:18;;;;;;;33.20;21.90;;;23.10;42.80;;;;;;215706;1269;22695;-59
2022/12/14 22:30:26;;;;;;;31.40;20.60;;;23.20;43.50;;;;;;215673;1275;24913;-58
2022/12/14 22:35:34;;;;;;;30.30;20.80;;;23.30;43.70;;;;;;215491;1269;22509;-56
2022/12/14 22:40:38;;;;;;;36.80;22.60;;;23.30;43.80;;;;;;215714;1269;25637;-59
2022/12/14 22:45:43;;;;;;;36.30;23.70;;;23.20;43.80;;;;;;215553;1276;24233;-57
2022/12/14 22:50:50;;;;;;;37.10;24.20;;;23.10;44.10;;;;;;215531;1274;24231;-59
2022/12/14 22:56:15;;;;;;;33.00;21.70;;;23.10;44.40;;;;;;215477;1276;25312;-58
2022/12/14 23:01:19;;;;;;;34.60;22.60;;;23.00;44.20;;;;;;215591;1275;22594;-58
2022/12/14 23:06:29;;;;;;;32.90;22.60;;;22.90;44.50;;;;;;215684;1276;22581;-57
